createdAt,value
2017-12-09T00:02:01.321Z," 2.26"
2017-12-09T00:06:56.968Z," 2.28"
2017-12-09T00:11:52.628Z," 2.32"
2017-12-09T00:16:48.099Z," 2.11"
2017-12-09T00:21:43.823Z," 2.10"
2017-12-09T00:26:39.344Z," 2.15"
2017-12-09T00:31:34.955Z," 2.26"
2017-12-09T00:36:31.294Z," 2.31"
2017-12-09T00:41:27.824Z," 2.29"
2017-12-09T00:46:23.680Z," 2.33"
2017-12-09T00:51:20.181Z," 2.18"
2017-12-09T00:56:15.453Z," 2.11"
2017-12-09T01:01:11.111Z," 2.24"
2017-12-09T01:06:07.500Z," 2.29"
2017-12-09T01:11:03.014Z," 2.31"
2017-12-09T01:15:58.671Z," 2.10"
2017-12-09T01:20:55.129Z," 2.18"
2017-12-09T01:25:51.130Z," 2.29"
2017-12-09T01:30:49.220Z," 2.44"
2017-12-09T01:35:44.368Z," 2.32"
2017-12-09T01:40:40.018Z," 2.44"
2017-12-09T01:45:35.638Z," 2.36"
2017-12-09T01:50:31.342Z," 2.44"
2017-12-09T01:55:27.049Z," 2.46"
2017-12-09T02:00:22.732Z," 2.46"
2017-12-09T02:05:17.855Z," 2.47"
2017-12-09T02:10:14.765Z," 2.50"
2017-12-09T02:15:10.013Z," 2.29"
2017-12-09T02:20:05.473Z," 2.29"
2017-12-09T02:25:01.332Z," 2.44"
2017-12-09T02:29:56.595Z," 2.42"
2017-12-09T02:34:54.579Z," 2.36"
2017-12-09T02:39:49.699Z," 2.62"
2017-12-09T02:44:45.388Z," 2.50"
2017-12-09T02:49:40.911Z," 2.49"
2017-12-09T02:54:37.290Z," 2.46"
2017-12-09T02:59:32.712Z," 2.44"
2017-12-09T03:04:28.356Z," 2.39"
2017-12-09T03:09:25.098Z," 2.50"
2017-12-09T03:14:20.658Z," 2.42"
2017-12-09T03:19:17.073Z," 2.43"
2017-12-09T03:24:12.723Z," 2.54"
2017-12-09T03:29:09.597Z," 2.47"
2017-12-09T03:34:04.860Z," 2.49"
2017-12-09T03:39:01.234Z," 2.57"
2017-12-09T03:43:57.081Z," 2.62"
2017-12-09T03:48:53.605Z," 2.56"
2017-12-09T03:53:50.117Z," 2.62"
2017-12-09T03:58:46.450Z," 2.65"
2017-12-09T04:03:41.835Z," 2.53"
2017-12-09T04:08:37.396Z," 2.57"
2017-12-09T04:13:32.879Z," 2.56"
2017-12-09T04:18:28.387Z," 2.71"
2017-12-09T04:23:24.322Z," 2.65"
2017-12-09T04:28:19.479Z," 2.56"
2017-12-09T04:33:16.073Z," 2.64"
2017-12-09T04:38:11.457Z," 2.51"
2017-12-09T04:43:07.048Z," 2.50"
2017-12-09T04:48:02.762Z," 2.50"
2017-12-09T04:52:58.362Z," 2.43"
2017-12-09T04:57:55.550Z," 2.46"
2017-12-09T05:02:50.903Z," 2.47"
2017-12-09T05:07:46.762Z," 2.36"
2017-12-09T05:12:44.045Z," 2.38"
2017-12-09T05:17:40.421Z," 2.50"
2017-12-09T05:22:36.345Z," 2.39"
2017-12-09T05:27:31.989Z," 2.43"
2017-12-09T05:32:28.673Z," 2.47"
2017-12-09T05:37:24.718Z," 2.44"
2017-12-09T05:42:21.454Z," 2.47"
2017-12-09T05:47:17.844Z," 2.65"
2017-12-09T05:52:13.064Z," 2.33"
2017-12-09T05:57:08.888Z," 2.31"
2017-12-09T06:02:04.974Z," 2.06"
2017-12-09T06:07:00.230Z," 1.99"
2017-12-09T06:11:57.170Z," 1.95"
2017-12-09T06:16:52.317Z," 1.91"
2017-12-09T06:21:47.771Z," 1.94"
2017-12-09T06:26:43.453Z," 2.00"
2017-12-09T06:31:38.656Z," 2.02"
2017-12-09T06:36:34.381Z," 2.06"
2017-12-09T06:41:32.035Z," 2.02"
2017-12-09T06:46:27.275Z," 1.97"
2017-12-09T06:51:23.319Z," 1.99"
2017-12-09T06:56:18.977Z," 2.04"
2017-12-09T07:01:14.631Z," 2.04"
2017-12-09T07:06:10.203Z," 1.99"
2017-12-09T07:11:07.020Z," 2.06"
2017-12-09T07:16:02.548Z," 2.29"
2017-12-09T07:20:58.867Z," 2.08"
2017-12-09T07:25:54.302Z," 2.10"
2017-12-09T07:30:49.953Z," 2.06"
2017-12-09T07:35:45.758Z," 2.04"
2017-12-09T07:40:42.179Z," 2.10"
2017-12-09T07:45:37.484Z," 2.25"
2017-12-09T07:50:33.087Z," 2.13"
2017-12-09T07:55:28.626Z," 2.13"
2017-12-09T08:00:25.245Z," 2.07"
2017-12-09T08:05:21.832Z," 2.04"
2017-12-09T08:10:17.385Z," 2.00"
2017-12-09T08:15:13.160Z," 2.28"
2017-12-09T08:20:10.024Z," 2.13"
2017-12-09T08:25:05.627Z," 2.08"
2017-12-09T08:30:02.259Z," 2.10"
2017-12-09T08:34:57.660Z," 2.08"
2017-12-09T08:39:53.205Z," 2.15"
2017-12-09T08:44:48.937Z," 2.31"
2017-12-09T08:49:45.797Z," 2.17"
2017-12-09T08:54:41.153Z," 2.07"
2017-12-09T08:59:36.800Z," 2.20"
2017-12-09T09:04:32.477Z," 2.15"
2017-12-09T09:09:28.169Z," 2.17"
2017-12-09T09:14:23.864Z," 2.13"
2017-12-09T09:19:19.431Z," 2.20"
2017-12-09T09:24:16.148Z," 2.25"
2017-12-09T09:29:11.388Z," 2.29"
2017-12-09T09:34:08.197Z," 2.32"
2017-12-09T09:39:03.556Z," 2.42"
2017-12-09T09:43:59.435Z," 2.32"
2017-12-09T09:48:56.062Z," 2.28"
2017-12-09T09:53:51.251Z," 2.39"
2017-12-09T09:58:47.054Z," 2.56"
2017-12-09T10:03:43.160Z," 2.82"
2017-12-09T10:08:39.414Z," 2.62"
2017-12-09T10:13:34.966Z," 2.62"
2017-12-09T10:18:31.652Z," 2.64"
2017-12-09T10:23:28.232Z," 2.80"
2017-12-09T10:28:23.466Z," 2.83"
2017-12-09T10:33:19.052Z," 2.87"
2017-12-09T10:38:15.797Z," 2.83"
2017-12-09T10:43:11.248Z," 2.92"
2017-12-09T10:48:06.836Z," 2.89"
2017-12-09T10:53:02.236Z," 2.74"
2017-12-09T10:57:58.730Z," 2.85"
2017-12-09T11:02:54.610Z," 2.80"
2017-12-09T11:07:51.068Z," 2.79"
2017-12-09T11:12:46.942Z," 2.83"
2017-12-09T11:17:42.979Z," 3.03"
2017-12-09T11:22:40.178Z," 3.00"
2017-12-09T11:27:36.589Z," 3.03"
2017-12-09T11:32:31.926Z," 3.08"
2017-12-09T11:37:27.676Z," 3.21"
2017-12-09T11:42:23.626Z," 3.14"
2017-12-09T11:47:19.316Z," 3.16"
2017-12-09T11:52:15.776Z," 3.29"
2017-12-09T11:57:11.497Z," 3.29"
2017-12-09T12:02:07.021Z," 3.26"
2017-12-09T12:07:04.245Z," 3.25"
2017-12-09T12:11:59.682Z," 3.16"
2017-12-09T12:16:56.163Z," 3.03"
2017-12-09T12:21:51.778Z," 3.05"
2017-12-09T12:26:47.513Z," 3.11"
2017-12-09T12:31:43.231Z," 3.25"
2017-12-09T12:36:38.868Z," 3.19"
2017-12-09T12:41:34.489Z," 3.18"
2017-12-09T12:46:30.227Z," 3.25"
2017-12-09T12:51:26.767Z," 3.26"
2017-12-09T12:56:22.403Z," 3.03"
2017-12-09T13:01:17.851Z," 3.29"
2017-12-09T13:06:15.224Z," 3.18"
2017-12-09T13:11:10.580Z," 3.31"
2017-12-09T13:16:06.247Z," 3.28"
2017-12-09T13:21:01.849Z," 3.18"
2017-12-09T13:25:58.058Z," 3.22"
2017-12-09T13:30:53.896Z," 3.28"
2017-12-09T13:35:50.862Z," 3.25"
2017-12-09T13:40:46.278Z," 3.26"
2017-12-09T13:45:41.488Z," 3.08"
2017-12-09T13:50:37.570Z," 3.16"
2017-12-09T13:55:33.306Z," 3.22"
2017-12-09T14:00:30.007Z," 3.22"
2017-12-09T14:05:25.564Z," 3.19"
2017-12-09T14:10:22.060Z," 3.10"
2017-12-09T14:15:17.831Z," 3.13"
2017-12-09T14:20:14.610Z," 3.19"
2017-12-09T14:25:11.099Z," 3.13"
2017-12-09T14:30:06.314Z," 3.05"
2017-12-09T14:35:01.936Z," 3.11"
2017-12-09T14:39:58.416Z," 2.95"
2017-12-09T14:44:53.702Z," 3.11"
2017-12-09T14:49:49.408Z," 3.10"
2017-12-09T14:54:45.349Z," 3.08"
2017-12-09T14:59:40.903Z," 3.01"
2017-12-09T15:04:36.567Z," 3.05"
2017-12-09T15:09:32.233Z," 2.95"
2017-12-09T15:14:28.671Z," 2.90"
2017-12-09T15:19:25.566Z," 2.85"
2017-12-09T15:24:21.010Z," 2.82"
2017-12-09T15:29:17.805Z," 2.89"
2017-12-09T15:34:13.044Z," 2.87"
2017-12-09T15:39:09.294Z," 2.67"
2017-12-09T15:44:05.802Z," 2.77"
2017-12-09T15:49:01.241Z," 2.64"
2017-12-09T15:53:56.980Z," 2.75"
2017-12-09T15:58:53.169Z," 2.64"
2017-12-09T16:03:48.962Z," 2.56"
2017-12-09T16:08:44.554Z," 2.68"
2017-12-09T16:13:41.223Z," 2.56"
2017-12-09T16:18:36.505Z," 2.50"
2017-12-09T16:23:32.278Z," 2.53"
2017-12-09T16:28:27.805Z," 2.60"
2017-12-09T16:33:24.690Z," 2.60"
2017-12-09T16:38:21.273Z," 2.56"
2017-12-09T16:43:17.667Z," 2.60"
2017-12-09T16:48:13.139Z," 2.49"
2017-12-09T16:53:09.690Z," 2.67"
2017-12-09T16:58:05.068Z," 2.61"
2017-12-09T17:03:01.734Z," 2.54"
2017-12-09T17:07:57.126Z," 2.31"
2017-12-09T17:12:52.658Z," 2.22"
2017-12-09T17:17:48.577Z," 2.26"
2017-12-09T17:22:44.326Z," 2.06"
2017-12-09T17:27:39.913Z," 2.15"
2017-12-09T17:32:35.532Z," 1.95"
2017-12-09T17:37:33.136Z," 2.02"
2017-12-09T17:42:28.318Z," 2.13"
2017-12-09T17:47:24.047Z," 2.08"
2017-12-09T17:52:19.721Z," 2.07"
2017-12-09T17:57:15.200Z," 1.95"
2017-12-09T18:02:11.650Z," 2.11"
2017-12-09T18:07:06.892Z," 2.17"
2017-12-09T18:12:02.740Z," 2.10"
2017-12-09T18:16:58.272Z," 2.14"
2017-12-09T18:21:54.015Z," 2.31"
2017-12-09T18:26:49.758Z," 2.35"
2017-12-09T18:31:46.048Z," 2.39"
2017-12-09T18:36:42.987Z," 2.39"
2017-12-09T18:41:39.047Z," 2.42"
2017-12-09T18:46:35.836Z," 2.50"
2017-12-09T18:51:31.715Z," 2.43"
2017-12-09T18:56:27.648Z," 2.44"
2017-12-09T19:01:22.905Z," 2.46"
2017-12-09T19:06:18.526Z," 2.38"
2017-12-09T19:11:15.098Z," 2.43"
2017-12-09T19:16:11.389Z," 2.32"
2017-12-09T19:21:06.855Z," 2.39"
2017-12-09T19:26:03.348Z," 2.33"
2017-12-09T19:30:59.733Z," 2.42"
2017-12-09T19:35:55.188Z," 2.42"
2017-12-09T19:40:50.838Z," 2.39"
2017-12-09T19:45:47.502Z," 2.43"
2017-12-09T19:50:42.875Z," 2.29"
2017-12-09T19:55:38.409Z," 2.33"
2017-12-09T20:00:34.915Z," 2.32"
2017-12-09T20:05:31.951Z," 2.22"
2017-12-09T20:10:27.288Z," 2.24"
2017-12-09T20:15:24.012Z," 2.17"
2017-12-09T20:20:19.345Z," 2.00"
2017-12-09T20:25:15.913Z," 2.11"
2017-12-09T20:30:11.214Z," 2.00"
2017-12-09T20:35:07.601Z," 2.04"
2017-12-09T20:40:03.142Z," 1.89"
2017-12-09T20:44:58.877Z," 1.88"
2017-12-09T20:49:54.536Z," 1.88"
2017-12-09T20:54:50.252Z," 1.89"
2017-12-09T20:59:46.002Z," 1.92"
2017-12-09T21:04:43.394Z," 1.94"
2017-12-09T21:09:39.013Z," 1.95"
2017-12-09T21:14:34.708Z," 2.04"
2017-12-09T21:19:30.384Z," 2.04"
2017-12-09T21:24:26.031Z," 2.08"
2017-12-09T21:29:21.698Z," 2.00"
2017-12-09T21:34:17.360Z," 2.06"
2017-12-09T21:39:13.070Z," 2.13"
2017-12-09T21:44:09.485Z," 2.08"
2017-12-09T21:49:05.695Z," 1.94"
2017-12-09T21:54:01.454Z," 1.92"
2017-12-09T21:58:57.777Z," 1.84"
2017-12-09T22:03:54.025Z," 1.77"
2017-12-09T22:08:48.890Z," 1.77"
2017-12-09T22:13:45.119Z," 1.94"
2017-12-09T22:18:41.318Z," 1.97"
2017-12-09T22:23:36.927Z," 1.94"
2017-12-09T22:28:32.413Z," 1.84"
2017-12-09T22:33:28.015Z," 1.97"
2017-12-09T22:38:23.644Z," 1.94"
2017-12-09T22:43:20.188Z," 2.06"
2017-12-09T22:48:15.568Z," 1.94"
2017-12-09T22:53:12.059Z," 2.08"
2017-12-09T22:58:08.425Z," 1.97"
2017-12-09T23:03:03.780Z," 2.17"
2017-12-09T23:08:00.468Z," 2.10"
2017-12-09T23:12:57.199Z," 2.14"
2017-12-09T23:17:52.687Z," 2.26"
2017-12-09T23:22:48.370Z," 2.11"
2017-12-09T23:27:44.936Z," 2.22"
2017-12-09T23:32:40.873Z," 2.13"
2017-12-09T23:37:36.432Z," 2.14"
2017-12-09T23:42:33.049Z," 2.13"
2017-12-09T23:47:28.591Z," 2.10"
2017-12-09T23:52:24.112Z," 2.13"
2017-12-09T23:57:19.933Z," 2.22"
